This is the latest recevied weather packets stored in our database for station/object KK7MLS-13. If no packets are shown the sender has not sent any weather packets the latest 10 day(s).
| Time | Temp. | Humidity | Pressure | Rain* | Wind** | Luminosity | Snow |
|---|---|---|---|---|---|---|---|
| 1777678501 | 26.11° C | 40% | 1014.5 hPa | 0 mm | - | 355 W/m² | - |
| 1777678196 | 26.11° C | 40% | 1014.4 hPa | 0 mm | - | 403 W/m² | - |
| 1777677893 | 25.56° C | 40% | 1014.4 hPa | 0 mm | - | 355 W/m² | - |
| 1777677590 | 25.56° C | 40% | 1014.6 hPa | 0 mm | - | 398 W/m² | - |
| 1777677289 | 25.56° C | 39% | 1014.5 hPa | 0 mm | - | 420 W/m² | - |
| 1777676986 | 25° C | 42% | 1014.5 hPa | 0 mm | - | 415 W/m² | - |
| 1777676685 | 25° C | 40% | 1014.6 hPa | 0 mm | - | 414 W/m² | - |
| 1777676383 | 25° C | 42% | 1014.8 hPa | 0 mm | - | 418 W/m² | - |
| 1777676080 | 25.56° C | 39% | 1014.7 hPa | 0 mm | - | 414 W/m² | - |
| 1777675776 | 26.11° C | 40% | 1015 hPa | 0 mm | - | 484 W/m² | - |
| 1777675473 | 25.56° C | 44% | 1015 hPa | 0 mm | - | 452 W/m² | - |
| 1777675170 | 25.56° C | 41% | 1015 hPa | 0 mm | - | 456 W/m² | - |
| 1777674866 | 25° C | 43% | 1015.1 hPa | 0 mm | - | 475 W/m² | - |
| 1777674563 | 26.11° C | 40% | 1015.1 hPa | 0 mm | - | 498 W/m² | - |
| 1777674261 | 25° C | 42% | 1015.2 hPa | 0 mm | - | 511 W/m² | - |
| 1777673956 | 25° C | 43% | 1015.3 hPa | 0 mm | - | 531 W/m² | - |
| 1777673653 | 25.56° C | 40% | 1015.4 hPa | 0 mm | - | 590 W/m² | - |
| 1777673351 | 25° C | 44% | 1015.3 hPa | 0 mm | - | 599 W/m² | - |
| 1777673049 | 24.44° C | 46% | 1015.4 hPa | 0 mm | - | 378 W/m² | - |
| 1777672744 | 24.44° C | 44% | 1015.4 hPa | 0 mm | - | 542 W/m² | - |
| 1777672441 | 24.44° C | 43% | 1015.5 hPa | 0 mm | - | 555 W/m² | - |
| 1777672136 | 23.89° C | 45% | 1015.7 hPa | 0 mm | - | 551 W/m² | - |
| 1777671832 | 24.44° C | 42% | 1015.6 hPa | 0 mm | - | 573 W/m² | - |
| 1777671528 | 24.44° C | 44% | 1015.5 hPa | 0 mm | - | 511 W/m² | - |
| 1777671225 | 24.44° C | 46% | 1015.7 hPa | 0 mm | - | 541 W/m² | - |
* Rain latest hour (hover to see other rain measurements)
** Current wind speed in m/s (hover to see current wind gust speed)